LFOP/URO METAR and TAF weather

Enter ICAO airport designator
Station Type Date Time Source
LFOP METAR 2020/10/29 15:30 UTC NOAA

LFOP 291530Z AUTO 21011KT 9999 FEW019 OVC035 14/12 Q1018 TEMPO 3000 DZRA OVC010


Station Type Date Time Source
LFOP Decoded METAR 2020/10/29 15:30 UTC NOAA

Rouen, France (LFOP) 49-23N 001-11E 157M
Oct 29, 2020 - 11:30 AM EDT / 2020.10.29 1530 UTC
Wind: from the SSW (210 degrees) at 13 MPH (11 KT):0
Visibility: greater than 7 mile(s):0
Sky conditions: overcast
Temperature: 57 F (14 C)
Dew Point: 53 F (12 C)
Relative Humidity: 87%
Pressure (altimeter): 30.06 in. Hg (1018 hPa)
ob: LFOP 291530Z AUTO 21011KT 9999 FEW019 OVC035 14/12 Q1018 TEMPO 3000 DZRA OVC010
cycle: 15

Station Type Date Time Source
LFOP TAF 2020/10/29 12:43 UTC NOAA

TAF LFOP 291100Z 2912/3012 23015KT 9999 BKN017 BKN030
TEMPO 2913/3012 3000 DZRA OVC010

Example: see airport list